sensor_id;sensor_type;location;lat;lon;timestamp;P1;durP1;ratioP1;P2;durP2;ratioP2
12816;SDS011;6473;51.552;6.716;2023-10-19T00:00:20;11.48;;;8.68;;
12816;SDS011;6473;51.552;6.716;2023-10-19T00:02:49;11.93;;;9.20;;
12816;SDS011;6473;51.552;6.716;2023-10-19T00:05:20;12.20;;;9.20;;
12816;SDS011;6473;51.552;6.716;2023-10-19T00:07:46;11.52;;;8.93;;
12816;SDS011;6473;51.552;6.716;2023-10-19T00:10:13;12.95;;;9.88;;
12816;SDS011;6473;51.552;6.716;2023-10-19T00:12:41;10.70;;;8.65;;
12816;SDS011;6473;51.552;6.716;2023-10-19T00:15:17;11.82;;;8.90;;
12816;SDS011;6473;51.552;6.716;2023-10-19T00:17:50;14.48;;;9.30;;
12816;SDS011;6473;51.552;6.716;2023-10-19T00:20:20;13.90;;;9.55;;
12816;SDS011;6473;51.552;6.716;2023-10-19T00:23:03;13.93;;;9.27;;
12816;SDS011;6473;51.552;6.716;2023-10-19T00:25:31;11.20;;;9.40;;
12816;SDS011;6473;51.552;6.716;2023-10-19T00:27:59;11.30;;;9.45;;
12816;SDS011;6473;51.552;6.716;2023-10-19T00:30:29;14.00;;;9.82;;
12816;SDS011;6473;51.552;6.716;2023-10-19T00:32:59;13.02;;;8.95;;
12816;SDS011;6473;51.552;6.716;2023-10-19T00:35:29;11.55;;;8.85;;
12816;SDS011;6473;51.552;6.716;2023-10-19T00:38:01;13.20;;;9.27;;
12816;SDS011;6473;51.552;6.716;2023-10-19T00:40:42;11.63;;;8.90;;
12816;SDS011;6473;51.552;6.716;2023-10-19T00:43:12;10.50;;;8.63;;
12816;SDS011;6473;51.552;6.716;2023-10-19T00:45:43;10.30;;;8.63;;
12816;SDS011;6473;51.552;6.716;2023-10-19T00:48:13;9.32;;;8.13;;
12816;SDS011;6473;51.552;6.716;2023-10-19T00:50:42;10.82;;;8.20;;
12816;SDS011;6473;51.552;6.716;2023-10-19T00:53:12;10.48;;;8.02;;
12816;SDS011;6473;51.552;6.716;2023-10-19T00:55:41;9.32;;;7.53;;
12816;SDS011;6473;51.552;6.716;2023-10-19T00:58:07;10.00;;;7.88;;
12816;SDS011;6473;51.552;6.716;2023-10-19T01:00:38;10.23;;;8.68;;
12816;SDS011;6473;51.552;6.716;2023-10-19T01:03:10;13.98;;;10.60;;
12816;SDS011;6473;51.552;6.716;2023-10-19T01:05:43;16.05;;;12.13;;
12816;SDS011;6473;51.552;6.716;2023-10-19T01:08:14;15.25;;;10.85;;
12816;SDS011;6473;51.552;6.716;2023-10-19T01:10:49;17.10;;;12.20;;
12816;SDS011;6473;51.552;6.716;2023-10-19T01:13:18;13.30;;;11.60;;
12816;SDS011;6473;51.552;6.716;2023-10-19T01:15:52;14.35;;;11.13;;
12816;SDS011;6473;51.552;6.716;2023-10-19T01:18:21;12.93;;;10.82;;
12816;SDS011;6473;51.552;6.716;2023-10-19T01:20:55;14.65;;;11.10;;
12816;SDS011;6473;51.552;6.716;2023-10-19T01:23:25;14.13;;;11.20;;
12816;SDS011;6473;51.552;6.716;2023-10-19T01:25:54;13.38;;;11.10;;
12816;SDS011;6473;51.552;6.716;2023-10-19T01:28:34;11.40;;;9.90;;
12816;SDS011;6473;51.552;6.716;2023-10-19T01:31:09;13.18;;;10.90;;
12816;SDS011;6473;51.552;6.716;2023-10-19T01:33:41;14.18;;;10.52;;
12816;SDS011;6473;51.552;6.716;2023-10-19T01:36:09;14.13;;;10.23;;
12816;SDS011;6473;51.552;6.716;2023-10-19T01:38:38;15.10;;;11.02;;
12816;SDS011;6473;51.552;6.716;2023-10-19T01:41:06;12.05;;;10.35;;
12816;SDS011;6473;51.552;6.716;2023-10-19T01:43:39;11.63;;;10.38;;
12816;SDS011;6473;51.552;6.716;2023-10-19T01:46:08;13.27;;;10.57;;
12816;SDS011;6473;51.552;6.716;2023-10-19T01:48:37;12.75;;;10.10;;
12816;SDS011;6473;51.552;6.716;2023-10-19T01:51:06;14.80;;;10.13;;
12816;SDS011;6473;51.552;6.716;2023-10-19T01:53:36;12.57;;;9.15;;
12816;SDS011;6473;51.552;6.716;2023-10-19T01:56:06;11.98;;;9.25;;
12816;SDS011;6473;51.552;6.716;2023-10-19T01:58:34;9.45;;;8.32;;
12816;SDS011;6473;51.552;6.716;2023-10-19T02:01:02;9.88;;;7.68;;
12816;SDS011;6473;51.552;6.716;2023-10-19T02:03:35;11.27;;;7.30;;
12816;SDS011;6473;51.552;6.716;2023-10-19T02:06:03;10.55;;;8.55;;
12816;SDS011;6473;51.552;6.716;2023-10-19T02:08:38;9.98;;;8.20;;
12816;SDS011;6473;51.552;6.716;2023-10-19T02:11:05;9.00;;;7.88;;
12816;SDS011;6473;51.552;6.716;2023-10-19T02:13:41;9.95;;;7.88;;
12816;SDS011;6473;51.552;6.716;2023-10-19T02:16:08;8.18;;;7.32;;
12816;SDS011;6473;51.552;6.716;2023-10-19T02:18:35;10.60;;;9.10;;
12816;SDS011;6473;51.552;6.716;2023-10-19T02:21:02;9.65;;;7.85;;
12816;SDS011;6473;51.552;6.716;2023-10-19T02:23:31;9.00;;;7.50;;
12816;SDS011;6473;51.552;6.716;2023-10-19T02:26:00;11.63;;;8.80;;
12816;SDS011;6473;51.552;6.716;2023-10-19T02:28:30;9.68;;;7.70;;
12816;SDS011;6473;51.552;6.716;2023-10-19T02:30:57;10.05;;;7.57;;
12816;SDS011;6473;51.552;6.716;2023-10-19T02:33:36;12.77;;;8.43;;
12816;SDS011;6473;51.552;6.716;2023-10-19T02:36:03;11.15;;;7.82;;
12816;SDS011;6473;51.552;6.716;2023-10-19T02:38:38;10.85;;;8.13;;
12816;SDS011;6473;51.552;6.716;2023-10-19T02:41:06;9.70;;;7.50;;
12816;SDS011;6473;51.552;6.716;2023-10-19T02:43:34;9.57;;;7.97;;
12816;SDS011;6473;51.552;6.716;2023-10-19T02:46:01;8.15;;;7.32;;
12816;SDS011;6473;51.552;6.716;2023-10-19T02:48:29;9.20;;;7.45;;
12816;SDS011;6473;51.552;6.716;2023-10-19T02:50:55;11.48;;;7.78;;
12816;SDS011;6473;51.552;6.716;2023-10-19T02:53:31;8.40;;;7.50;;
12816;SDS011;6473;51.552;6.716;2023-10-19T02:55:59;8.13;;;6.35;;
12816;SDS011;6473;51.552;6.716;2023-10-19T02:58:28;8.70;;;6.50;;
12816;SDS011;6473;51.552;6.716;2023-10-19T03:00:54;8.63;;;6.13;;
12816;SDS011;6473;51.552;6.716;2023-10-19T03:03:21;9.30;;;6.35;;
12816;SDS011;6473;51.552;6.716;2023-10-19T03:05:47;6.78;;;6.18;;
12816;SDS011;6473;51.552;6.716;2023-10-19T03:08:14;7.72;;;5.82;;
12816;SDS011;6473;51.552;6.716;2023-10-19T03:10:41;7.47;;;6.10;;
12816;SDS011;6473;51.552;6.716;2023-10-19T03:13:08;7.30;;;6.00;;
12816;SDS011;6473;51.552;6.716;2023-10-19T03:15:36;7.15;;;5.93;;
12816;SDS011;6473;51.552;6.716;2023-10-19T03:18:08;6.30;;;5.70;;
12816;SDS011;6473;51.552;6.716;2023-10-19T03:20:37;8.40;;;5.53;;
12816;SDS011;6473;51.552;6.716;2023-10-19T03:23:06;7.03;;;5.15;;
12816;SDS011;6473;51.552;6.716;2023-10-19T03:25:35;6.90;;;4.32;;
12816;SDS011;6473;51.552;6.716;2023-10-19T03:28:20;4.65;;;4.00;;
12816;SDS011;6473;51.552;6.716;2023-10-19T03:30:52;5.20;;;3.92;;
12816;SDS011;6473;51.552;6.716;2023-10-19T03:33:20;6.05;;;4.13;;
12816;SDS011;6473;51.552;6.716;2023-10-19T03:35:52;6.47;;;4.10;;
12816;SDS011;6473;51.552;6.716;2023-10-19T03:38:19;7.93;;;4.82;;
12816;SDS011;6473;51.552;6.716;2023-10-19T03:40:48;10.65;;;5.68;;
12816;SDS011;6473;51.552;6.716;2023-10-19T03:43:23;7.20;;;5.70;;
12816;SDS011;6473;51.552;6.716;2023-10-19T03:45:53;7.15;;;5.35;;
12816;SDS011;6473;51.552;6.716;2023-10-19T03:48:20;6.50;;;5.15;;
12816;SDS011;6473;51.552;6.716;2023-10-19T03:50:52;6.65;;;5.47;;
12816;SDS011;6473;51.552;6.716;2023-10-19T03:53:21;6.43;;;5.72;;
12816;SDS011;6473;51.552;6.716;2023-10-19T03:55:48;7.53;;;5.88;;
12816;SDS011;6473;51.552;6.716;2023-10-19T03:58:16;6.30;;;5.65;;
12816;SDS011;6473;51.552;6.716;2023-10-19T04:00:45;6.63;;;5.55;;
12816;SDS011;6473;51.552;6.716;2023-10-19T04:03:15;6.32;;;5.47;;
12816;SDS011;6473;51.552;6.716;2023-10-19T04:05:43;5.72;;;5.13;;
12816;SDS011;6473;51.552;6.716;2023-10-19T04:08:12;6.13;;;5.00;;
12816;SDS011;6473;51.552;6.716;2023-10-19T04:10:40;8.13;;;5.60;;
12816;SDS011;6473;51.552;6.716;2023-10-19T04:13:12;6.15;;;5.40;;
12816;SDS011;6473;51.552;6.716;2023-10-19T04:15:39;6.70;;;5.18;;
12816;SDS011;6473;51.552;6.716;2023-10-19T04:18:06;6.45;;;5.18;;
12816;SDS011;6473;51.552;6.716;2023-10-19T04:20:38;5.07;;;4.60;;
12816;SDS011;6473;51.552;6.716;2023-10-19T04:23:20;5.25;;;4.75;;
12816;SDS011;6473;51.552;6.716;2023-10-19T04:25:47;7.25;;;5.63;;
12816;SDS011;6473;51.552;6.716;2023-10-19T04:28:14;6.68;;;5.10;;
12816;SDS011;6473;51.552;6.716;2023-10-19T04:30:45;5.32;;;4.82;;
12816;SDS011;6473;51.552;6.716;2023-10-19T04:33:13;6.90;;;4.90;;
12816;SDS011;6473;51.552;6.716;2023-10-19T04:35:43;7.82;;;4.70;;
12816;SDS011;6473;51.552;6.716;2023-10-19T04:38:10;9.52;;;5.07;;
12816;SDS011;6473;51.552;6.716;2023-10-19T04:40:37;9.45;;;4.82;;
12816;SDS011;6473;51.552;6.716;2023-10-19T04:43:04;8.10;;;4.53;;
12816;SDS011;6473;51.552;6.716;2023-10-19T04:45:31;7.95;;;5.43;;
12816;SDS011;6473;51.552;6.716;2023-10-19T04:47:58;7.90;;;4.68;;
12816;SDS011;6473;51.552;6.716;2023-10-19T04:50:25;6.28;;;5.35;;
12816;SDS011;6473;51.552;6.716;2023-10-19T04:52:53;8.60;;;5.32;;
12816;SDS011;6473;51.552;6.716;2023-10-19T04:55:20;6.00;;;4.60;;
12816;SDS011;6473;51.552;6.716;2023-10-19T04:57:48;5.85;;;4.78;;
12816;SDS011;6473;51.552;6.716;2023-10-19T05:00:16;6.18;;;4.50;;
12816;SDS011;6473;51.552;6.716;2023-10-19T05:02:46;7.32;;;4.05;;
12816;SDS011;6473;51.552;6.716;2023-10-19T05:05:13;4.75;;;4.05;;
12816;SDS011;6473;51.552;6.716;2023-10-19T05:07:42;4.35;;;3.80;;
12816;SDS011;6473;51.552;6.716;2023-10-19T05:10:10;4.85;;;4.43;;
12816;SDS011;6473;51.552;6.716;2023-10-19T05:12:37;7.03;;;4.35;;
12816;SDS011;6473;51.552;6.716;2023-10-19T05:15:05;6.25;;;4.10;;
12816;SDS011;6473;51.552;6.716;2023-10-19T05:17:33;7.57;;;4.03;;
12816;SDS011;6473;51.552;6.716;2023-10-19T05:20:00;4.35;;;3.60;;
12816;SDS011;6473;51.552;6.716;2023-10-19T05:22:28;8.25;;;4.25;;
12816;SDS011;6473;51.552;6.716;2023-10-19T05:24:57;6.25;;;4.05;;
12816;SDS011;6473;51.552;6.716;2023-10-19T05:27:26;6.10;;;3.92;;
12816;SDS011;6473;51.552;6.716;2023-10-19T05:29:52;5.32;;;4.75;;
12816;SDS011;6473;51.552;6.716;2023-10-19T05:32:20;4.85;;;3.97;;
12816;SDS011;6473;51.552;6.716;2023-10-19T05:34:47;7.88;;;4.25;;
12816;SDS011;6473;51.552;6.716;2023-10-19T05:37:13;7.35;;;4.40;;
12816;SDS011;6473;51.552;6.716;2023-10-19T05:39:41;5.38;;;4.40;;
12816;SDS011;6473;51.552;6.716;2023-10-19T05:42:09;7.45;;;4.35;;
12816;SDS011;6473;51.552;6.716;2023-10-19T05:44:37;6.43;;;4.30;;
12816;SDS011;6473;51.552;6.716;2023-10-19T05:47:04;4.93;;;4.10;;
12816;SDS011;6473;51.552;6.716;2023-10-19T05:49:32;5.68;;;3.88;;
12816;SDS011;6473;51.552;6.716;2023-10-19T05:51:59;4.50;;;4.00;;
12816;SDS011;6473;51.552;6.716;2023-10-19T05:54:28;4.38;;;3.97;;
12816;SDS011;6473;51.552;6.716;2023-10-19T05:56:55;5.75;;;3.40;;
12816;SDS011;6473;51.552;6.716;2023-10-19T05:59:22;5.78;;;3.78;;
12816;SDS011;6473;51.552;6.716;2023-10-19T06:01:53;7.32;;;3.97;;
12816;SDS011;6473;51.552;6.716;2023-10-19T06:04:19;5.05;;;3.83;;
12816;SDS011;6473;51.552;6.716;2023-10-19T06:06:46;4.20;;;3.70;;
12816;SDS011;6473;51.552;6.716;2023-10-19T06:09:13;4.85;;;4.05;;
12816;SDS011;6473;51.552;6.716;2023-10-19T06:11:40;4.50;;;3.40;;
12816;SDS011;6473;51.552;6.716;2023-10-19T06:14:08;7.50;;;3.58;;
12816;SDS011;6473;51.552;6.716;2023-10-19T06:16:35;7.10;;;3.00;;
12816;SDS011;6473;51.552;6.716;2023-10-19T06:19:03;5.40;;;3.20;;
12816;SDS011;6473;51.552;6.716;2023-10-19T06:21:30;6.13;;;3.50;;
12816;SDS011;6473;51.552;6.716;2023-10-19T06:23:58;7.55;;;3.03;;
12816;SDS011;6473;51.552;6.716;2023-10-19T06:26:25;5.40;;;3.13;;
12816;SDS011;6473;51.552;6.716;2023-10-19T06:28:52;3.88;;;2.95;;
12816;SDS011;6473;51.552;6.716;2023-10-19T06:31:23;4.18;;;2.95;;
12816;SDS011;6473;51.552;6.716;2023-10-19T06:33:51;3.45;;;3.15;;
12816;SDS011;6473;51.552;6.716;2023-10-19T06:36:19;6.40;;;2.90;;
12816;SDS011;6473;51.552;6.716;2023-10-19T06:38:46;4.20;;;2.83;;
12816;SDS011;6473;51.552;6.716;2023-10-19T06:41:16;6.43;;;2.80;;
12816;SDS011;6473;51.552;6.716;2023-10-19T06:43:43;8.05;;;3.15;;
12816;SDS011;6473;51.552;6.716;2023-10-19T06:46:10;7.28;;;3.38;;
12816;SDS011;6473;51.552;6.716;2023-10-19T06:48:37;4.47;;;2.65;;
12816;SDS011;6473;51.552;6.716;2023-10-19T06:51:04;5.28;;;2.83;;
12816;SDS011;6473;51.552;6.716;2023-10-19T06:53:33;4.47;;;2.88;;
12816;SDS011;6473;51.552;6.716;2023-10-19T06:56:00;3.97;;;3.13;;
12816;SDS011;6473;51.552;6.716;2023-10-19T06:58:29;4.55;;;2.55;;
12816;SDS011;6473;51.552;6.716;2023-10-19T07:00:56;4.82;;;2.80;;
12816;SDS011;6473;51.552;6.716;2023-10-19T07:03:25;5.53;;;3.10;;
12816;SDS011;6473;51.552;6.716;2023-10-19T07:05:54;6.78;;;3.65;;
12816;SDS011;6473;51.552;6.716;2023-10-19T07:08:21;4.47;;;3.53;;
12816;SDS011;6473;51.552;6.716;2023-10-19T07:10:49;5.70;;;3.70;;
12816;SDS011;6473;51.552;6.716;2023-10-19T07:13:16;7.75;;;4.28;;
12816;SDS011;6473;51.552;6.716;2023-10-19T07:15:45;7.25;;;4.07;;
12816;SDS011;6473;51.552;6.716;2023-10-19T07:18:12;5.65;;;3.55;;
12816;SDS011;6473;51.552;6.716;2023-10-19T07:20:39;5.47;;;4.22;;
12816;SDS011;6473;51.552;6.716;2023-10-19T07:23:07;6.40;;;3.72;;
12816;SDS011;6473;51.552;6.716;2023-10-19T07:25:43;7.03;;;3.70;;
12816;SDS011;6473;51.552;6.716;2023-10-19T07:28:12;6.15;;;3.90;;
12816;SDS011;6473;51.552;6.716;2023-10-19T07:30:39;5.72;;;3.45;;
12816;SDS011;6473;51.552;6.716;2023-10-19T07:33:07;7.65;;;3.75;;
12816;SDS011;6473;51.552;6.716;2023-10-19T07:35:35;5.63;;;3.50;;
12816;SDS011;6473;51.552;6.716;2023-10-19T07:38:04;4.03;;;3.22;;
12816;SDS011;6473;51.552;6.716;2023-10-19T07:40:32;4.13;;;3.40;;
12816;SDS011;6473;51.552;6.716;2023-10-19T07:42:59;4.85;;;3.58;;
12816;SDS011;6473;51.552;6.716;2023-10-19T07:45:30;7.38;;;3.60;;
12816;SDS011;6473;51.552;6.716;2023-10-19T07:47:57;4.70;;;3.47;;
12816;SDS011;6473;51.552;6.716;2023-10-19T07:50:31;7.65;;;3.58;;
12816;SDS011;6473;51.552;6.716;2023-10-19T07:52:58;5.05;;;3.40;;
12816;SDS011;6473;51.552;6.716;2023-10-19T07:55:25;6.60;;;3.63;;
12816;SDS011;6473;51.552;6.716;2023-10-19T07:57:52;6.80;;;4.00;;
12816;SDS011;6473;51.552;6.716;2023-10-19T08:00:21;5.72;;;4.05;;
12816;SDS011;6473;51.552;6.716;2023-10-19T08:02:51;7.43;;;4.40;;
12816;SDS011;6473;51.552;6.716;2023-10-19T08:05:19;6.72;;;4.68;;
12816;SDS011;6473;51.552;6.716;2023-10-19T08:07:46;7.57;;;4.53;;
12816;SDS011;6473;51.552;6.716;2023-10-19T08:10:14;7.68;;;4.97;;
12816;SDS011;6473;51.552;6.716;2023-10-19T08:12:42;6.50;;;4.80;;
12816;SDS011;6473;51.552;6.716;2023-10-19T08:15:13;6.85;;;4.95;;
12816;SDS011;6473;51.552;6.716;2023-10-19T08:17:41;8.43;;;4.80;;
12816;SDS011;6473;51.552;6.716;2023-10-19T08:20:10;6.80;;;4.20;;
12816;SDS011;6473;51.552;6.716;2023-10-19T08:22:48;7.60;;;4.50;;
12816;SDS011;6473;51.552;6.716;2023-10-19T08:25:15;4.95;;;4.40;;
12816;SDS011;6473;51.552;6.716;2023-10-19T08:27:42;6.07;;;4.47;;
12816;SDS011;6473;51.552;6.716;2023-10-19T08:30:11;5.45;;;4.45;;
12816;SDS011;6473;51.552;6.716;2023-10-19T08:32:39;7.68;;;5.28;;
12816;SDS011;6473;51.552;6.716;2023-10-19T08:35:07;6.63;;;4.70;;
12816;SDS011;6473;51.552;6.716;2023-10-19T08:37:37;7.85;;;5.32;;
12816;SDS011;6473;51.552;6.716;2023-10-19T08:40:06;7.45;;;5.20;;
12816;SDS011;6473;51.552;6.716;2023-10-19T08:42:33;9.27;;;4.90;;
12816;SDS011;6473;51.552;6.716;2023-10-19T08:45:01;9.63;;;4.80;;
12816;SDS011;6473;51.552;6.716;2023-10-19T08:47:33;6.50;;;4.30;;
12816;SDS011;6473;51.552;6.716;2023-10-19T08:50:02;5.93;;;4.15;;
12816;SDS011;6473;51.552;6.716;2023-10-19T08:52:30;7.88;;;4.40;;
12816;SDS011;6473;51.552;6.716;2023-10-19T08:54:59;5.85;;;4.45;;
12816;SDS011;6473;51.552;6.716;2023-10-19T08:57:26;6.90;;;4.15;;
12816;SDS011;6473;51.552;6.716;2023-10-19T08:59:54;7.60;;;4.20;;
12816;SDS011;6473;51.552;6.716;2023-10-19T09:02:24;8.77;;;4.90;;
12816;SDS011;6473;51.552;6.716;2023-10-19T09:04:52;5.68;;;3.80;;
12816;SDS011;6473;51.552;6.716;2023-10-19T09:07:19;5.38;;;3.50;;
12816;SDS011;6473;51.552;6.716;2023-10-19T09:09:45;6.50;;;3.83;;
12816;SDS011;6473;51.552;6.716;2023-10-19T09:12:15;8.20;;;4.18;;
12816;SDS011;6473;51.552;6.716;2023-10-19T09:14:45;6.75;;;3.70;;
12816;SDS011;6473;51.552;6.716;2023-10-19T09:17:12;4.90;;;3.72;;
12816;SDS011;6473;51.552;6.716;2023-10-19T09:19:39;5.57;;;3.92;;
12816;SDS011;6473;51.552;6.716;2023-10-19T09:22:08;5.88;;;3.65;;
12816;SDS011;6473;51.552;6.716;2023-10-19T09:24:44;6.35;;;3.35;;
12816;SDS011;6473;51.552;6.716;2023-10-19T09:27:11;6.22;;;3.45;;
12816;SDS011;6473;51.552;6.716;2023-10-19T09:29:40;6.82;;;3.75;;
12816;SDS011;6473;51.552;6.716;2023-10-19T09:32:07;5.20;;;2.95;;
12816;SDS011;6473;51.552;6.716;2023-10-19T09:34:36;7.35;;;3.20;;
12816;SDS011;6473;51.552;6.716;2023-10-19T09:37:06;3.80;;;2.88;;
12816;SDS011;6473;51.552;6.716;2023-10-19T09:39:33;7.82;;;2.90;;
12816;SDS011;6473;51.552;6.716;2023-10-19T09:42:01;5.30;;;2.63;;
12816;SDS011;6473;51.552;6.716;2023-10-19T09:44:32;5.68;;;3.13;;
12816;SDS011;6473;51.552;6.716;2023-10-19T09:47:07;4.90;;;2.78;;
12816;SDS011;6473;51.552;6.716;2023-10-19T09:49:38;6.95;;;3.50;;
12816;SDS011;6473;51.552;6.716;2023-10-19T09:52:08;6.38;;;3.30;;
12816;SDS011;6473;51.552;6.716;2023-10-19T09:54:40;5.00;;;2.67;;
12816;SDS011;6473;51.552;6.716;2023-10-19T09:57:21;5.63;;;2.83;;
12816;SDS011;6473;51.552;6.716;2023-10-19T10:00:04;3.45;;;2.35;;
12816;SDS011;6473;51.552;6.716;2023-10-19T10:02:42;6.85;;;2.78;;
12816;SDS011;6473;51.552;6.716;2023-10-19T10:08:27;4.65;;;2.53;;
12816;SDS011;6473;51.552;6.716;2023-10-19T10:10:57;6.22;;;2.20;;
12816;SDS011;6473;51.552;6.716;2023-10-19T10:13:36;4.05;;;2.22;;
12816;SDS011;6473;51.552;6.716;2023-10-19T10:16:03;2.90;;;2.22;;
12816;SDS011;6473;51.552;6.716;2023-10-19T10:18:31;3.72;;;2.03;;
12816;SDS011;6473;51.552;6.716;2023-10-19T10:21:06;4.55;;;2.10;;
12816;SDS011;6473;51.552;6.716;2023-10-19T10:23:39;7.03;;;2.72;;
12816;SDS011;6473;51.552;6.716;2023-10-19T10:26:08;5.15;;;2.65;;
12816;SDS011;6473;51.552;6.716;2023-10-19T10:28:35;6.57;;;2.58;;
12816;SDS011;6473;51.552;6.716;2023-10-19T10:31:11;3.97;;;2.45;;
12816;SDS011;6473;51.552;6.716;2023-10-19T10:33:42;7.60;;;3.17;;
12816;SDS011;6473;51.552;6.716;2023-10-19T10:36:14;3.70;;;2.50;;
12816;SDS011;6473;51.552;6.716;2023-10-19T10:38:43;7.32;;;2.67;;
12816;SDS011;6473;51.552;6.716;2023-10-19T10:41:10;5.53;;;2.75;;
12816;SDS011;6473;51.552;6.716;2023-10-19T10:43:47;5.05;;;2.83;;
12816;SDS011;6473;51.552;6.716;2023-10-19T10:46:18;4.95;;;2.60;;
12816;SDS011;6473;51.552;6.716;2023-10-19T10:48:47;3.97;;;2.55;;
12816;SDS011;6473;51.552;6.716;2023-10-19T10:51:15;6.35;;;2.33;;
12816;SDS011;6473;51.552;6.716;2023-10-19T10:53:42;3.85;;;2.55;;
12816;SDS011;6473;51.552;6.716;2023-10-19T10:56:09;6.47;;;2.65;;
12816;SDS011;6473;51.552;6.716;2023-10-19T10:58:37;6.47;;;2.53;;
12816;SDS011;6473;51.552;6.716;2023-10-19T11:01:04;5.43;;;3.00;;
12816;SDS011;6473;51.552;6.716;2023-10-19T11:03:31;6.68;;;2.38;;
12816;SDS011;6473;51.552;6.716;2023-10-19T11:06:04;5.22;;;2.40;;
12816;SDS011;6473;51.552;6.716;2023-10-19T11:08:33;5.57;;;2.22;;
12816;SDS011;6473;51.552;6.716;2023-10-19T11:11:01;5.35;;;2.30;;
12816;SDS011;6473;51.552;6.716;2023-10-19T11:13:30;5.85;;;2.25;;
12816;SDS011;6473;51.552;6.716;2023-10-19T11:16:00;5.78;;;2.20;;
12816;SDS011;6473;51.552;6.716;2023-10-19T11:18:29;5.10;;;2.65;;
12816;SDS011;6473;51.552;6.716;2023-10-19T11:20:58;4.03;;;2.42;;
12816;SDS011;6473;51.552;6.716;2023-10-19T11:23:41;7.70;;;2.75;;
12816;SDS011;6473;51.552;6.716;2023-10-19T11:26:09;5.95;;;2.22;;
12816;SDS011;6473;51.552;6.716;2023-10-19T11:28:37;3.80;;;2.00;;
12816;SDS011;6473;51.552;6.716;2023-10-19T11:31:12;6.45;;;2.55;;
12816;SDS011;6473;51.552;6.716;2023-10-19T11:33:42;5.25;;;2.38;;
12816;SDS011;6473;51.552;6.716;2023-10-19T11:36:10;6.63;;;2.55;;
12816;SDS011;6473;51.552;6.716;2023-10-19T11:38:38;5.80;;;2.13;;
12816;SDS011;6473;51.552;6.716;2023-10-19T11:41:08;4.53;;;2.45;;
12816;SDS011;6473;51.552;6.716;2023-10-19T11:43:36;5.07;;;2.22;;
12816;SDS011;6473;51.552;6.716;2023-10-19T11:46:02;5.35;;;2.10;;
12816;SDS011;6473;51.552;6.716;2023-10-19T11:48:31;4.82;;;2.42;;
12816;SDS011;6473;51.552;6.716;2023-10-19T11:50:58;3.47;;;2.00;;
12816;SDS011;6473;51.552;6.716;2023-10-19T11:53:29;4.50;;;2.20;;
12816;SDS011;6473;51.552;6.716;2023-10-19T11:56:00;6.32;;;2.20;;
12816;SDS011;6473;51.552;6.716;2023-10-19T11:58:29;4.63;;;2.30;;
12816;SDS011;6473;51.552;6.716;2023-10-19T12:00:57;6.78;;;2.30;;
12816;SDS011;6473;51.552;6.716;2023-10-19T12:03:25;5.13;;;2.20;;
12816;SDS011;6473;51.552;6.716;2023-10-19T12:05:52;5.90;;;2.15;;
12816;SDS011;6473;51.552;6.716;2023-10-19T12:08:20;5.80;;;2.50;;
12816;SDS011;6473;51.552;6.716;2023-10-19T12:10:48;6.35;;;2.10;;
12816;SDS011;6473;51.552;6.716;2023-10-19T12:13:18;7.00;;;2.58;;
12816;SDS011;6473;51.552;6.716;2023-10-19T12:15:45;4.72;;;2.00;;
12816;SDS011;6473;51.552;6.716;2023-10-19T12:18:18;5.57;;;2.10;;
12816;SDS011;6473;51.552;6.716;2023-10-19T12:20:45;6.38;;;1.92;;
12816;SDS011;6473;51.552;6.716;2023-10-19T12:23:12;5.60;;;1.58;;
12816;SDS011;6473;51.552;6.716;2023-10-19T12:25:39;5.45;;;1.80;;
12816;SDS011;6473;51.552;6.716;2023-10-19T12:28:07;5.00;;;1.80;;
12816;SDS011;6473;51.552;6.716;2023-10-19T12:30:41;6.65;;;2.28;;
12816;SDS011;6473;51.552;6.716;2023-10-19T12:33:08;5.57;;;1.98;;
12816;SDS011;6473;51.552;6.716;2023-10-19T12:35:37;3.47;;;1.88;;
12816;SDS011;6473;51.552;6.716;2023-10-19T12:38:13;3.08;;;1.50;;
12816;SDS011;6473;51.552;6.716;2023-10-19T12:40:43;4.40;;;1.70;;
12816;SDS011;6473;51.552;6.716;2023-10-19T12:43:11;3.70;;;1.38;;
12816;SDS011;6473;51.552;6.716;2023-10-19T12:45:40;4.53;;;1.40;;
12816;SDS011;6473;51.552;6.716;2023-10-19T12:48:09;2.25;;;1.50;;
12816;SDS011;6473;51.552;6.716;2023-10-19T12:50:38;4.15;;;1.50;;
12816;SDS011;6473;51.552;6.716;2023-10-19T12:53:06;4.57;;;1.40;;
12816;SDS011;6473;51.552;6.716;2023-10-19T12:55:33;4.45;;;1.45;;
12816;SDS011;6473;51.552;6.716;2023-10-19T12:58:03;5.00;;;1.80;;
12816;SDS011;6473;51.552;6.716;2023-10-19T13:00:34;2.53;;;1.55;;
12816;SDS011;6473;51.552;6.716;2023-10-19T13:03:10;4.40;;;1.70;;
12816;SDS011;6473;51.552;6.716;2023-10-19T13:05:41;4.22;;;1.60;;
12816;SDS011;6473;51.552;6.716;2023-10-19T13:08:10;7.82;;;1.75;;
12816;SDS011;6473;51.552;6.716;2023-10-19T13:10:39;6.20;;;2.35;;
12816;SDS011;6473;51.552;6.716;2023-10-19T13:13:09;6.43;;;2.05;;
12816;SDS011;6473;51.552;6.716;2023-10-19T13:15:38;5.18;;;1.70;;
12816;SDS011;6473;51.552;6.716;2023-10-19T13:18:07;4.93;;;2.15;;
12816;SDS011;6473;51.552;6.716;2023-10-19T13:20:37;3.20;;;1.90;;
12816;SDS011;6473;51.552;6.716;2023-10-19T13:23:05;5.30;;;1.65;;
12816;SDS011;6473;51.552;6.716;2023-10-19T13:25:36;3.63;;;2.08;;
12816;SDS011;6473;51.552;6.716;2023-10-19T13:28:12;4.35;;;2.13;;
12816;SDS011;6473;51.552;6.716;2023-10-19T13:30:40;3.83;;;2.30;;
12816;SDS011;6473;51.552;6.716;2023-10-19T13:33:09;5.93;;;2.33;;
12816;SDS011;6473;51.552;6.716;2023-10-19T13:35:38;5.65;;;1.70;;
12816;SDS011;6473;51.552;6.716;2023-10-19T13:38:06;3.10;;;1.67;;
12816;SDS011;6473;51.552;6.716;2023-10-19T13:40:34;6.22;;;2.03;;
12816;SDS011;6473;51.552;6.716;2023-10-19T13:43:03;4.25;;;1.77;;
12816;SDS011;6473;51.552;6.716;2023-10-19T13:45:31;2.45;;;1.80;;
12816;SDS011;6473;51.552;6.716;2023-10-19T13:47:59;5.07;;;1.67;;
12816;SDS011;6473;51.552;6.716;2023-10-19T13:50:27;6.63;;;2.30;;
12816;SDS011;6473;51.552;6.716;2023-10-19T13:52:56;4.03;;;1.70;;
12816;SDS011;6473;51.552;6.716;2023-10-19T13:55:25;3.60;;;1.80;;
12816;SDS011;6473;51.552;6.716;2023-10-19T13:57:53;4.10;;;1.83;;
12816;SDS011;6473;51.552;6.716;2023-10-19T14:00:21;4.50;;;1.70;;
12816;SDS011;6473;51.552;6.716;2023-10-19T14:02:55;4.57;;;1.90;;
12816;SDS011;6473;51.552;6.716;2023-10-19T14:05:24;3.15;;;2.08;;
12816;SDS011;6473;51.552;6.716;2023-10-19T14:07:51;4.32;;;2.20;;
12816;SDS011;6473;51.552;6.716;2023-10-19T14:10:19;5.60;;;2.05;;
12816;SDS011;6473;51.552;6.716;2023-10-19T14:12:46;5.53;;;2.38;;
12816;SDS011;6473;51.552;6.716;2023-10-19T14:15:14;6.13;;;2.55;;
12816;SDS011;6473;51.552;6.716;2023-10-19T14:17:43;4.22;;;2.25;;
12816;SDS011;6473;51.552;6.716;2023-10-19T14:20:11;4.43;;;2.13;;
12816;SDS011;6473;51.552;6.716;2023-10-19T14:22:39;8.52;;;2.30;;
12816;SDS011;6473;51.552;6.716;2023-10-19T14:25:07;4.28;;;2.10;;
12816;SDS011;6473;51.552;6.716;2023-10-19T14:27:39;4.28;;;1.98;;
12816;SDS011;6473;51.552;6.716;2023-10-19T14:30:08;6.00;;;2.22;;
12816;SDS011;6473;51.552;6.716;2023-10-19T14:32:37;5.95;;;2.20;;
12816;SDS011;6473;51.552;6.716;2023-10-19T14:35:05;7.28;;;2.38;;
12816;SDS011;6473;51.552;6.716;2023-10-19T14:37:35;6.18;;;2.45;;
12816;SDS011;6473;51.552;6.716;2023-10-19T14:40:04;5.60;;;2.20;;
12816;SDS011;6473;51.552;6.716;2023-10-19T14:42:34;7.40;;;2.60;;
12816;SDS011;6473;51.552;6.716;2023-10-19T14:45:04;5.97;;;1.95;;
12816;SDS011;6473;51.552;6.716;2023-10-19T14:47:34;5.25;;;2.20;;
12816;SDS011;6473;51.552;6.716;2023-10-19T14:50:02;4.22;;;2.03;;
12816;SDS011;6473;51.552;6.716;2023-10-19T14:52:30;4.78;;;2.22;;
12816;SDS011;6473;51.552;6.716;2023-10-19T14:54:57;6.03;;;2.40;;
12816;SDS011;6473;51.552;6.716;2023-10-19T14:57:25;4.40;;;2.10;;
12816;SDS011;6473;51.552;6.716;2023-10-19T14:59:52;7.93;;;2.03;;
12816;SDS011;6473;51.552;6.716;2023-10-19T15:02:20;5.88;;;2.20;;
12816;SDS011;6473;51.552;6.716;2023-10-19T15:04:48;4.43;;;2.20;;
12816;SDS011;6473;51.552;6.716;2023-10-19T15:07:17;4.07;;;2.10;;
12816;SDS011;6473;51.552;6.716;2023-10-19T15:09:44;6.30;;;2.55;;
12816;SDS011;6473;51.552;6.716;2023-10-19T15:12:12;7.22;;;2.40;;